Martins Creek, Pennsylvania
Current Conditions -  °F | °C
As of 10:51 PM on Friday 31 Oct 2014 (Local Time) from KABE Reporting Station
Overcast Overcast  
Wind Chill: 44°   Ceiling: 7000
Heat Index: 48°   Visibility: 10mi
Dew Point: 35°   Wind: 8mph
Humidity: 61%   Direction: 60°ENE
Pressure: 29.87"   Gusts: NA
Location:  40.78°N, 75.19°W
Report Text: KABE 010251Z 06007KT 10SM SCT060 OVC070 09/02 A2987 RMK AO2 SLP115 T00890017 56011
Loading
Personal Weather Stations






























Interactive Weather Map
Tropical Storm Tracking
New forecast layout! Learn more

10-Day Weather Forecast

Advertisements
Track Severe Weather on mobile